createdAt,value
2019-06-26T00:05:24.890Z,94
2019-06-26T00:10:59.091Z,94
2019-06-26T00:16:33.191Z,94
2019-06-26T00:22:07.445Z,93
2019-06-26T00:27:41.548Z,93
2019-06-26T00:33:15.644Z,92
2019-06-26T00:38:49.811Z,93
2019-06-26T00:44:23.949Z,93
2019-06-26T00:49:58.093Z,92
2019-06-26T00:55:32.106Z,92
2019-06-26T01:01:06.272Z,92
2019-06-26T01:06:40.411Z,93
2019-06-26T01:12:14.524Z,93
2019-06-26T01:17:48.670Z,93
2019-06-26T01:23:22.749Z,93
2019-06-26T01:28:56.887Z,93
2019-06-26T01:34:31.002Z,93
2019-06-26T01:40:04.984Z,93
2019-06-26T01:45:39.237Z,93
2019-06-26T01:51:13.151Z,94
2019-06-26T01:56:47.221Z,94
2019-06-26T02:02:21.355Z,94
2019-06-26T02:07:55.402Z,93
2019-06-26T02:13:29.452Z,95
2019-06-26T02:19:03.498Z,96
2019-06-26T02:24:37.519Z,97
2019-06-26T02:30:11.613Z,99
2019-06-26T02:35:45.531Z,97
2019-06-26T02:41:19.582Z,95
2019-06-26T02:46:53.624Z,95
2019-06-26T02:52:27.682Z,95
2019-06-26T02:58:01.647Z,94
2019-06-26T03:03:35.713Z,95
2019-06-26T03:09:09.731Z,97
2019-06-26T03:14:43.644Z,96
2019-06-26T03:20:17.524Z,97
2019-06-26T03:25:51.466Z,97
2019-06-26T03:31:25.381Z,97
2019-06-26T03:36:59.250Z,97
2019-06-26T03:42:33.185Z,97
2019-06-26T03:48:07.115Z,97
2019-06-26T03:53:41.004Z,97
2019-06-26T03:59:15.049Z,96
2019-06-26T04:04:48.993Z,96
2019-06-26T04:10:22.937Z,95
2019-06-26T04:15:56.975Z,93
2019-06-26T04:21:31.091Z,92
2019-06-26T04:27:05.694Z,91
2019-06-26T04:32:39.324Z,91
2019-06-26T04:38:13.548Z,91
2019-06-26T04:43:48.125Z,91
2019-06-26T04:49:22.161Z,91
2019-06-26T04:54:56.560Z,93
2019-06-26T05:00:31.046Z,92
2019-06-26T05:06:05.479Z,92
2019-06-26T05:11:39.926Z,94
2019-06-26T05:17:14.500Z,94
2019-06-26T05:22:49.073Z,93
2019-06-26T05:28:23.681Z,92
2019-06-26T05:33:58.357Z,91
2019-06-26T05:39:33.009Z,91
2019-06-26T05:45:07.732Z,91
2019-06-26T05:50:43.166Z,90
2019-06-26T05:56:17.489Z,88
2019-06-26T06:01:52.419Z,87
2019-06-26T06:07:28.506Z,86
2019-06-26T06:13:02.597Z,87
2019-06-26T06:18:37.703Z,86
2019-06-26T06:24:12.968Z,84
2019-06-26T06:29:48.227Z,83
2019-06-26T06:35:23.482Z,80
2019-06-26T06:40:58.979Z,80
2019-06-26T06:46:34.515Z,77
2019-06-26T06:52:10.268Z,75
2019-06-26T06:57:46.041Z,75
2019-06-26T07:03:21.928Z,73
2019-06-26T07:08:57.875Z,73
2019-06-26T07:14:33.947Z,71
2019-06-26T07:20:10.201Z,70
2019-06-26T07:25:46.520Z,71
2019-06-26T07:31:22.771Z,68
2019-06-26T07:36:59.144Z,72
2019-06-26T07:42:35.595Z,72
2019-06-26T07:48:12.078Z,70
2019-06-26T07:53:48.962Z,72
2019-06-26T07:59:25.782Z,67
2019-06-26T08:05:02.839Z,72
2019-06-26T08:10:40.067Z,70
2019-06-26T08:16:17.073Z,66
2019-06-26T08:21:53.972Z,66
2019-06-26T08:27:30.933Z,64
2019-06-26T08:33:08.109Z,63
2019-06-26T08:38:45.535Z,63
2019-06-26T08:44:22.918Z,62
2019-06-26T08:50:00.352Z,62
2019-06-26T08:55:37.827Z,62
2019-06-26T09:01:15.459Z,64
2019-06-26T09:06:53.006Z,65
2019-06-26T09:12:30.991Z,64
2019-06-26T09:18:08.621Z,64
2019-06-26T09:23:46.555Z,63
2019-06-26T09:29:24.380Z,64
2019-06-26T09:35:02.075Z,64
2019-06-26T09:40:39.746Z,64
2019-06-26T09:46:17.541Z,63
2019-06-26T09:51:55.122Z,65
2019-06-26T09:57:33.714Z,63
2019-06-26T10:03:11.615Z,64
2019-06-26T10:14:46.449Z,63
2019-06-26T10:20:07.520Z,61
2019-06-26T10:25:45.928Z,60
2019-06-26T10:31:24.101Z,58
2019-06-26T10:37:01.785Z,58
2019-06-26T10:42:40.087Z,57
2019-06-26T10:48:18.283Z,56
2019-06-26T10:53:56.480Z,58
2019-06-26T10:59:34.166Z,57
2019-06-26T11:05:11.912Z,56
2019-06-26T11:10:49.826Z,50
2019-06-26T11:16:27.559Z,50
2019-06-26T11:22:05.608Z,50
2019-06-26T11:27:43.712Z,50
2019-06-26T11:33:21.730Z,50
2019-06-26T11:38:59.811Z,50
2019-06-26T11:44:38.078Z,50
2019-06-26T11:50:16.460Z,50
2019-06-26T11:55:55.299Z,52
2019-06-26T12:01:33.677Z,50
2019-06-26T12:07:11.559Z,49
2019-06-26T12:18:28.723Z,47
2019-06-26T12:24:06.545Z,44
2019-06-26T12:29:44.651Z,41
2019-06-26T12:35:22.770Z,42
2019-06-26T12:41:00.934Z,41
2019-06-26T12:46:39.204Z,40
2019-06-26T12:52:17.581Z,38
2019-06-26T12:58:11.562Z,40
2019-06-26T13:03:34.635Z,37
2019-06-26T13:09:13.334Z,39
2019-06-26T13:14:52.070Z,39
2019-06-26T13:20:30.802Z,37
2019-06-26T13:26:09.458Z,39
2019-06-26T13:31:48.230Z,38
2019-06-26T13:37:26.993Z,39
2019-06-26T13:43:05.882Z,39
2019-06-26T13:48:44.774Z,40
2019-06-26T13:54:23.665Z,40
2019-06-26T14:00:02.362Z,39
2019-06-26T14:05:41.104Z,40
2019-06-26T14:11:19.989Z,40
2019-06-26T14:16:58.983Z,40
2019-06-26T14:22:37.686Z,40
2019-06-26T14:28:19.428Z,40
2019-06-26T14:33:55.398Z,38
2019-06-26T14:39:34.524Z,39
2019-06-26T14:45:13.683Z,40
2019-06-26T14:50:52.982Z,40
2019-06-26T14:56:32.203Z,41
2019-06-26T15:02:11.426Z,43
2019-06-26T15:07:50.714Z,40
2019-06-26T15:13:30.021Z,41
2019-06-26T15:19:09.152Z,41
2019-06-26T15:24:48.260Z,43
2019-06-26T15:30:27.540Z,43
2019-06-26T15:36:06.855Z,48
2019-06-26T15:41:46.134Z,46
2019-06-26T15:47:25.175Z,46
2019-06-26T15:53:04.196Z,50
2019-06-26T15:58:43.284Z,49
2019-06-26T16:04:22.248Z,50
2019-06-26T16:10:01.510Z,48
2019-06-26T16:15:40.769Z,50
2019-06-26T16:21:19.819Z,49
2019-06-26T16:26:58.591Z,47
2019-06-26T16:32:37.397Z,54
2019-06-26T16:38:16.205Z,54
2019-06-26T16:43:54.898Z,52
2019-06-26T16:49:33.505Z,58
2019-06-26T16:55:12.082Z,60
2019-06-26T17:00:50.488Z,61
2019-06-26T17:06:28.872Z,66
2019-06-26T17:12:07.113Z,56
2019-06-26T17:17:45.082Z,55
2019-06-26T17:23:22.880Z,62
2019-06-26T17:29:00.660Z,64
2019-06-26T17:34:38.359Z,67
2019-06-26T17:40:15.807Z,66
2019-06-26T17:45:53.241Z,66
2019-06-26T17:51:30.409Z,62
2019-06-26T17:57:07.564Z,65
2019-06-26T18:02:44.521Z,70
2019-06-26T18:08:21.441Z,73
2019-06-26T18:13:58.307Z,70
2019-06-26T18:19:35.009Z,68
2019-06-26T18:25:11.565Z,66
2019-06-26T18:30:48.145Z,74
2019-06-26T18:36:24.469Z,70
2019-06-26T18:42:00.503Z,71
2019-06-26T18:47:36.433Z,69
2019-06-26T18:53:12.224Z,70
2019-06-26T18:58:47.786Z,69
2019-06-26T19:04:23.229Z,69
2019-06-26T19:09:58.612Z,71
2019-06-26T19:15:33.959Z,71
2019-06-26T19:21:09.100Z,69
2019-06-26T19:26:44.337Z,70
2019-06-26T19:32:19.358Z,69
2019-06-26T19:37:54.513Z,68
2019-06-26T19:43:29.500Z,70
2019-06-26T19:49:04.549Z,70
2019-06-26T19:54:39.482Z,73
2019-06-26T20:00:14.364Z,68
2019-06-26T20:05:49.708Z,69
2019-06-26T20:11:25.479Z,69
2019-06-26T20:17:01.274Z,66
2019-06-26T20:22:37.164Z,66
2019-06-26T20:28:12.871Z,66
2019-06-26T20:33:48.707Z,66
2019-06-26T20:39:24.541Z,67
2019-06-26T20:45:00.288Z,68
2019-06-26T20:50:35.962Z,66
2019-06-26T20:56:11.726Z,66
2019-06-26T21:01:47.531Z,66
2019-06-26T21:07:23.266Z,67
2019-06-26T21:12:58.936Z,66
2019-06-26T21:18:34.616Z,68
2019-06-26T21:24:10.297Z,66
2019-06-26T21:29:45.925Z,66
2019-06-26T21:35:21.575Z,67
2019-06-26T21:40:56.853Z,68
2019-06-26T21:46:31.614Z,70
2019-06-26T21:52:06.388Z,75
2019-06-26T21:57:41.032Z,75
2019-06-26T22:03:15.755Z,75
2019-06-26T22:08:50.323Z,78
2019-06-26T22:14:24.765Z,78
2019-06-26T22:19:59.304Z,79
2019-06-26T22:25:41.057Z,79
2019-06-26T22:31:08.145Z,78
2019-06-26T22:36:51.218Z,80
2019-06-26T22:42:16.912Z,80
2019-06-26T22:47:51.156Z,81
2019-06-26T22:53:25.531Z,79
2019-06-26T22:58:59.856Z,79
2019-06-26T23:04:34.242Z,79
2019-06-26T23:10:08.546Z,72
2019-06-26T23:15:42.872Z,74
2019-06-26T23:21:18.192Z,75
2019-06-26T23:26:51.627Z,78
2019-06-26T23:32:26.085Z,78
2019-06-26T23:38:00.377Z,80
2019-06-26T23:43:34.680Z,80
2019-06-26T23:49:08.904Z,80
2019-06-26T23:54:43.124Z,80
